createdAt,value
2022-09-16T00:00:33.876Z,0.60
2022-09-16T00:03:49.881Z,0.40
2022-09-16T00:07:05.882Z,0.70
2022-09-16T00:10:35.012Z,0.80
2022-09-16T00:13:52.058Z,0.70
2022-09-16T00:17:08.771Z,0.53
2022-09-16T00:20:16.828Z,0.70
2022-09-16T00:23:44.945Z,0.60
2022-09-16T00:26:48.902Z,0.60
2022-09-16T00:30:20.872Z,0.80
2022-09-16T00:33:37.211Z,0.50
2022-09-16T00:36:55.744Z,0.93
2022-09-16T00:40:12.038Z,0.57
2022-09-16T00:43:39.972Z,0.55
2022-09-16T00:47:01.163Z,0.63
2022-09-16T00:50:32.985Z,0.70
2022-09-16T00:53:48.938Z,0.70
2022-09-16T00:57:20.025Z,0.65
2022-09-16T01:00:36.090Z,0.83
2022-09-16T01:04:07.082Z,0.40
2022-09-16T01:07:25.973Z,0.50
2022-09-16T01:10:59.968Z,0.87
2022-09-16T01:14:20.224Z,0.60
2022-09-16T01:17:49.176Z,1.00
2022-09-16T01:21:16.027Z,0.50
2022-09-16T01:24:48.169Z,0.50
2022-09-16T01:28:10.140Z,0.70
2022-09-16T01:31:40.163Z,0.60
2022-09-16T01:34:57.167Z,0.40
2022-09-16T01:38:28.118Z,0.90
2022-09-16T01:41:50.116Z,0.45
2022-09-16T01:45:19.106Z,0.40
2022-09-16T01:48:38.124Z,0.55
2022-09-16T01:52:06.217Z,0.60
2022-09-16T01:55:22.221Z,0.97
2022-09-16T01:58:53.147Z,0.40
2022-09-16T02:02:09.320Z,0.10
2022-09-16T02:05:44.233Z,0.70
2022-09-16T02:09:00.263Z,0.60
2022-09-16T02:12:34.213Z,0.50
2022-09-16T02:15:51.313Z,0.70
2022-09-16T02:19:19.237Z,0.50
2022-09-16T02:22:36.328Z,0.63
2022-09-16T02:26:05.345Z,0.53
2022-09-16T02:29:33.316Z,0.40
2022-09-16T02:33:04.317Z,0.53
2022-09-16T02:36:20.245Z,0.20
2022-09-16T02:39:51.340Z,0.40
2022-09-16T02:43:08.296Z,0.60
2022-09-16T02:46:39.379Z,0.57
2022-09-16T02:49:55.377Z,0.50
2022-09-16T02:53:24.354Z,0.50
2022-09-16T02:56:45.330Z,0.50
2022-09-16T03:00:16.377Z,1.20
2022-09-16T03:03:20.407Z,0.27
2022-09-16T03:06:53.385Z,0.60
2022-09-16T03:10:09.407Z,0.50
2022-09-16T03:13:48.353Z,0.73
2022-09-16T03:17:04.556Z,0.60
2022-09-16T03:20:33.379Z,0.63
2022-09-16T03:23:50.331Z,0.30
2022-09-16T03:27:18.441Z,0.67
2022-09-16T03:30:36.434Z,0.40
2022-09-16T03:34:10.593Z,0.43
2022-09-16T03:37:26.512Z,0.80
2022-09-16T03:41:00.467Z,0.53
2022-09-16T03:44:19.684Z,0.53
2022-09-16T03:47:54.546Z,0.77
2022-09-16T03:51:01.435Z,0.70
2022-09-16T03:54:36.535Z,0.43
2022-09-16T03:57:43.541Z,0.40
2022-09-16T04:01:20.694Z,0.60
2022-09-16T04:04:53.529Z,0.50
2022-09-16T04:07:57.666Z,0.30
2022-09-16T04:11:25.568Z,0.43
2022-09-16T04:14:29.766Z,0.67
2022-09-16T04:17:58.739Z,0.47
2022-09-16T04:21:19.618Z,0.50
2022-09-16T04:24:38.686Z,0.57
2022-09-16T04:27:42.597Z,0.45
2022-09-16T04:31:01.766Z,0.40
2022-09-16T04:34:05.787Z,0.55
2022-09-16T04:37:40.756Z,0.85
2022-09-16T04:40:44.674Z,0.60
2022-09-16T04:44:13.653Z,0.70
2022-09-16T04:47:17.717Z,0.40
2022-09-16T04:50:36.813Z,0.43
2022-09-16T04:53:53.769Z,0.53
2022-09-16T04:57:15.696Z,1.17
2022-09-16T05:00:35.673Z,0.75
2022-09-16T05:03:51.786Z,0.67
2022-09-16T05:07:10.797Z,0.33
2022-09-16T05:10:42.827Z,0.50
2022-09-16T05:13:58.741Z,0.30
2022-09-16T05:17:33.367Z,0.60
2022-09-16T05:20:36.720Z,0.53
2022-09-16T05:24:07.760Z,0.50
2022-09-16T05:27:24.822Z,0.30
2022-09-16T05:30:43.797Z,0.40
2022-09-16T05:33:48.110Z,0.60
2022-09-16T05:37:06.911Z,0.85
2022-09-16T05:40:10.860Z,0.50
2022-09-16T05:43:39.958Z,0.70
2022-09-16T05:46:55.995Z,0.93
2022-09-16T05:50:11.970Z,0.50
2022-09-16T05:53:15.908Z,0.95
2022-09-16T05:56:49.885Z,0.50
2022-09-16T06:00:06.970Z,0.60
2022-09-16T06:03:35.869Z,0.60
2022-09-16T06:06:51.901Z,0.43
2022-09-16T06:10:13.987Z,0.50
2022-09-16T06:13:18.062Z,0.93
2022-09-16T06:16:50.093Z,0.63
2022-09-16T06:19:56.921Z,0.80
2022-09-16T06:23:13.030Z,0.40
2022-09-16T06:26:28.969Z,0.90
2022-09-16T06:29:45.088Z,0.53
2022-09-16T06:33:02.219Z,0.60
2022-09-16T06:36:31.182Z,0.50
2022-09-16T06:39:35.262Z,0.90
2022-09-16T06:43:03.100Z,0.60
2022-09-16T06:46:07.108Z,0.70
2022-09-16T06:49:39.081Z,0.45
2022-09-16T06:52:43.140Z,0.67
2022-09-16T06:56:00.175Z,0.57
2022-09-16T06:59:16.139Z,0.70
2022-09-16T07:02:44.122Z,0.63
2022-09-16T07:06:04.176Z,0.85
2022-09-16T07:09:33.179Z,0.50
2022-09-16T07:12:37.230Z,0.90
2022-09-16T07:16:20.396Z,0.93
2022-09-16T07:19:09.199Z,0.93
2022-09-16T07:22:39.203Z,0.50
2022-09-16T07:25:43.187Z,0.70
2022-09-16T07:29:11.124Z,1.27
2022-09-16T07:32:15.272Z,0.93
2022-09-16T07:35:31.209Z,1.15
2022-09-16T07:38:48.451Z,0.90
2022-09-16T07:42:11.275Z,0.90
2022-09-16T07:45:18.268Z,0.73
2022-09-16T07:48:35.322Z,0.93
2022-09-16T07:51:50.249Z,1.10
2022-09-16T07:55:25.314Z,0.80
2022-09-16T07:58:29.733Z,0.67
2022-09-16T08:01:58.430Z,0.97
2022-09-16T08:05:15.360Z,0.83
2022-09-16T08:08:19.253Z,1.25
2022-09-16T08:11:54.370Z,1.95
2022-09-16T08:14:58.362Z,0.80
2022-09-16T08:18:15.342Z,0.90
2022-09-16T08:21:34.523Z,1.30
2022-09-16T08:25:05.410Z,0.95
2022-09-16T08:28:22.385Z,0.83
2022-09-16T08:31:41.452Z,1.50
2022-09-16T08:35:00.344Z,1.30
2022-09-16T08:38:19.372Z,1.10
2022-09-16T08:41:35.496Z,1.13
2022-09-16T08:45:10.423Z,1.10
2022-09-16T08:48:30.536Z,1.17
2022-09-16T08:51:50.460Z,1.30
2022-09-16T08:55:07.505Z,0.80
2022-09-16T08:58:39.453Z,0.97
2022-09-16T09:01:58.041Z,1.10
2022-09-16T09:05:29.621Z,1.35
2022-09-16T09:08:47.519Z,1.20
2022-09-16T09:12:19.386Z,1.33
2022-09-16T09:15:45.661Z,1.47
2022-09-16T09:19:22.406Z,1.20
2022-09-16T09:22:39.616Z,1.50
2022-09-16T09:26:08.638Z,1.35
2022-09-16T09:29:26.746Z,0.95
2022-09-16T09:32:55.662Z,1.50
2022-09-16T09:36:16.583Z,1.70
2022-09-16T09:39:51.591Z,1.10
2022-09-16T09:43:07.474Z,1.40
2022-09-16T09:46:40.609Z,1.10
2022-09-16T09:49:56.719Z,1.10
2022-09-16T09:53:30.469Z,1.50
2022-09-16T09:56:46.865Z,1.50
2022-09-16T10:00:17.990Z,1.20
2022-09-16T10:03:48.852Z,1.20
2022-09-16T10:06:52.749Z,1.10
2022-09-16T10:10:22.715Z,1.77
2022-09-16T10:13:38.761Z,1.30
2022-09-16T10:17:07.679Z,1.47
2022-09-16T10:20:23.701Z,1.23
2022-09-16T10:23:51.724Z,1.43
2022-09-16T10:27:08.867Z,1.13
2022-09-16T10:30:40.800Z,1.57
2022-09-16T10:33:56.805Z,0.83
2022-09-16T10:37:27.799Z,1.27
2022-09-16T10:40:46.824Z,1.20
2022-09-16T10:44:24.610Z,1.27
2022-09-16T10:47:46.640Z,1.10
2022-09-16T10:51:23.818Z,1.50
2022-09-16T10:54:46.786Z,1.05
2022-09-16T10:58:14.900Z,1.30
2022-09-16T11:01:39.420Z,1.30
2022-09-16T11:05:15.922Z,1.20
2022-09-16T11:08:35.876Z,1.20
2022-09-16T11:12:07.698Z,0.90
2022-09-16T11:15:22.085Z,1.10
2022-09-16T11:18:57.881Z,1.37
2022-09-16T11:22:18.910Z,1.70
2022-09-16T11:25:51.849Z,0.80
2022-09-16T11:29:28.007Z,1.13
2022-09-16T11:33:01.044Z,1.07
2022-09-16T11:36:31.903Z,2.07
2022-09-16T11:40:05.005Z,1.23
2022-09-16T11:43:23.897Z,1.35
2022-09-16T11:46:54.193Z,1.00
2022-09-16T11:50:13.963Z,1.57
2022-09-16T11:53:46.165Z,1.80
2022-09-16T11:57:02.948Z,1.43
2022-09-16T12:00:34.232Z,1.10
2022-09-16T12:04:03.056Z,0.90
2022-09-16T12:07:20.043Z,0.97
2022-09-16T12:10:50.978Z,1.30
2022-09-16T12:14:11.133Z,1.35
2022-09-16T12:17:44.901Z,0.80
2022-09-16T12:21:05.053Z,1.13
2022-09-16T12:24:37.051Z,1.33
2022-09-16T12:28:02.077Z,1.33
2022-09-16T12:31:32.616Z,0.80
2022-09-16T12:34:51.067Z,0.97
2022-09-16T12:38:20.161Z,0.83
2022-09-16T12:41:46.096Z,1.20
2022-09-16T12:45:17.218Z,0.73
2022-09-16T12:48:39.164Z,1.20
2022-09-16T12:52:20.181Z,1.10
2022-09-16T12:55:44.079Z,0.97
2022-09-16T12:59:18.262Z,1.23
2022-09-16T13:02:36.281Z,1.07
2022-09-16T13:06:11.375Z,0.75
2022-09-16T13:09:27.322Z,0.90
2022-09-16T13:12:59.323Z,0.83
2022-09-16T13:16:21.377Z,0.63
2022-09-16T13:20:00.325Z,0.85
2022-09-16T13:23:17.203Z,0.90
2022-09-16T13:26:33.315Z,0.90
2022-09-16T13:29:53.392Z,0.90
2022-09-16T13:33:27.972Z,1.10
2022-09-16T13:36:44.269Z,1.27
2022-09-16T13:40:14.269Z,0.97
2022-09-16T13:43:39.380Z,1.40
2022-09-16T13:47:10.419Z,1.00
2022-09-16T13:50:26.305Z,1.00
2022-09-16T13:53:54.280Z,1.30
2022-09-16T13:57:13.402Z,1.40
2022-09-16T14:00:47.316Z,1.10
2022-09-16T14:04:20.461Z,1.30
2022-09-16T14:07:41.589Z,1.30
2022-09-16T14:11:19.526Z,1.30
2022-09-16T14:14:47.845Z,1.35
2022-09-16T14:18:10.402Z,1.50
2022-09-16T14:21:29.434Z,1.40
2022-09-16T14:25:06.173Z,1.65
2022-09-16T14:28:07.459Z,1.63
2022-09-16T14:31:41.487Z,1.60
2022-09-16T14:34:57.540Z,2.05
2022-09-16T14:38:44.512Z,1.10
2022-09-16T14:41:48.572Z,1.80
2022-09-16T14:45:19.453Z,1.77
2022-09-16T14:48:36.564Z,1.40
2022-09-16T14:52:04.423Z,2.03
2022-09-16T14:55:20.553Z,1.40
2022-09-16T14:58:49.700Z,1.10
2022-09-16T15:02:05.797Z,1.40
2022-09-16T15:05:36.493Z,1.40
2022-09-16T15:08:52.748Z,1.47
2022-09-16T15:12:23.672Z,1.40
2022-09-16T15:15:43.676Z,1.57
2022-09-16T15:19:21.562Z,1.20
2022-09-16T15:22:41.729Z,1.20
2022-09-16T15:26:17.600Z,1.13
2022-09-16T15:29:33.750Z,1.67
2022-09-16T15:33:09.684Z,1.23
2022-09-16T15:36:25.750Z,1.57
2022-09-16T15:39:57.682Z,1.30
2022-09-16T15:43:13.702Z,1.53
2022-09-16T15:46:44.829Z,1.83
2022-09-16T15:50:00.869Z,1.30
2022-09-16T15:53:31.683Z,1.30
2022-09-16T15:56:53.827Z,1.30
2022-09-16T16:00:23.930Z,2.27
2022-09-16T16:03:58.972Z,1.70
2022-09-16T16:07:14.900Z,2.13
2022-09-16T16:10:45.732Z,1.40
2022-09-16T16:14:02.995Z,1.33
2022-09-16T16:17:37.090Z,1.30
2022-09-16T16:20:55.879Z,1.40
2022-09-16T16:24:14.956Z,1.73
2022-09-16T16:27:30.899Z,1.20
2022-09-16T16:31:02.871Z,1.40
2022-09-16T16:34:06.927Z,1.25
2022-09-16T16:37:46.401Z,1.05
2022-09-16T16:40:41.923Z,1.00
2022-09-16T16:44:12.876Z,0.70
2022-09-16T16:47:30.080Z,0.73
2022-09-16T16:50:49.526Z,0.60
2022-09-16T16:54:05.978Z,0.70
2022-09-16T16:57:22.871Z,0.70
2022-09-16T17:00:39.998Z,0.70
2022-09-16T17:04:14.924Z,0.87
2022-09-16T17:07:26.291Z,0.50
2022-09-16T17:10:37.987Z,1.00
2022-09-16T17:13:53.992Z,0.70
2022-09-16T17:17:21.937Z,0.50
2022-09-16T17:20:41.964Z,0.73
2022-09-16T17:24:14.037Z,0.90
2022-09-16T17:27:17.974Z,0.57
2022-09-16T17:30:37.051Z,0.95
2022-09-16T17:33:54.092Z,1.00
2022-09-16T17:37:32.049Z,1.35
2022-09-16T17:40:36.109Z,1.30
2022-09-16T17:44:05.037Z,1.50
2022-09-16T17:47:09.243Z,1.00
2022-09-16T17:50:28.040Z,1.30
2022-09-16T17:53:48.185Z,1.33
2022-09-16T17:57:08.179Z,1.10
2022-09-16T18:00:12.410Z,1.35
2022-09-16T18:03:33.112Z,1.30
2022-09-16T18:06:53.137Z,0.73
2022-09-16T18:10:25.220Z,1.00
2022-09-16T18:13:29.102Z,1.13
2022-09-16T18:16:57.268Z,0.80
2022-09-16T18:20:07.163Z,1.17
2022-09-16T18:23:24.159Z,1.20
2022-09-16T18:26:41.235Z,1.37
2022-09-16T18:30:00.260Z,1.33
2022-09-16T18:33:04.221Z,1.00
2022-09-16T18:36:35.227Z,1.10
2022-09-16T18:39:39.420Z,0.97
2022-09-16T18:43:09.244Z,0.93
2022-09-16T18:46:33.463Z,1.23
2022-09-16T18:49:52.478Z,1.13
2022-09-16T18:52:56.338Z,1.30
2022-09-16T18:56:24.298Z,1.15
2022-09-16T18:59:44.330Z,1.27
2022-09-16T19:03:15.366Z,0.97
2022-09-16T19:06:22.299Z,1.43
2022-09-16T19:09:50.475Z,1.40
2022-09-16T19:12:54.254Z,0.70
2022-09-16T19:16:24.342Z,1.00
2022-09-16T19:19:40.353Z,0.77
2022-09-16T19:22:59.341Z,1.23
2022-09-16T19:26:03.637Z,1.20
2022-09-16T19:29:35.383Z,1.15
2022-09-16T19:32:55.576Z,1.20
2022-09-16T19:36:14.423Z,1.10
2022-09-16T19:39:33.407Z,1.47
2022-09-16T19:42:55.534Z,1.00
2022-09-16T19:46:02.531Z,1.20
2022-09-16T19:49:32.416Z,1.07
2022-09-16T19:52:54.124Z,1.10
2022-09-16T19:56:37.464Z,1.30
2022-09-16T19:59:57.454Z,1.00
2022-09-16T20:03:03.498Z,1.10
2022-09-16T20:06:33.474Z,1.20
2022-09-16T20:09:39.480Z,1.30
2022-09-16T20:12:59.554Z,1.20
2022-09-16T20:16:02.681Z,1.20
2022-09-16T20:19:30.586Z,1.37
2022-09-16T20:22:47.592Z,1.20
2022-09-16T20:26:21.522Z,1.40
2022-09-16T20:29:25.558Z,1.30
2022-09-16T20:32:53.496Z,1.40
2022-09-16T20:35:57.563Z,1.10
2022-09-16T20:39:35.739Z,1.30
2022-09-16T20:42:39.868Z,1.23
2022-09-16T20:45:59.658Z,1.00
2022-09-16T20:49:15.658Z,0.97
2022-09-16T20:52:32.666Z,1.37
2022-09-16T20:55:52.707Z,1.20
2022-09-16T20:59:23.492Z,1.20
2022-09-16T21:02:30.733Z,0.93
2022-09-16T21:05:52.704Z,1.37
2022-09-16T21:09:08.662Z,1.23
2022-09-16T21:12:40.673Z,0.97
2022-09-16T21:15:44.783Z,1.05
2022-09-16T21:19:17.830Z,1.20
2022-09-16T21:22:21.819Z,1.60
2022-09-16T21:25:40.875Z,1.33
2022-09-16T21:29:00.828Z,1.70
2022-09-16T21:32:16.749Z,1.80
2022-09-16T21:35:35.716Z,1.30
2022-09-16T21:39:03.993Z,1.23
2022-09-16T21:42:10.801Z,1.35
2022-09-16T21:45:42.834Z,1.10
2022-09-16T21:48:58.843Z,0.85
2022-09-16T21:52:29.924Z,1.60
2022-09-16T21:55:33.873Z,1.25
2022-09-16T21:59:04.857Z,1.20
2022-09-16T22:02:28.920Z,1.30
2022-09-16T22:05:55.962Z,1.80
2022-09-16T22:09:11.967Z,1.23
2022-09-16T22:12:30.933Z,1.20
2022-09-16T22:15:34.968Z,1.57
2022-09-16T22:19:07.637Z,2.00
2022-09-16T22:22:11.957Z,1.65
2022-09-16T22:25:30.917Z,1.80
2022-09-16T22:28:34.994Z,1.97
2022-09-16T22:32:06.200Z,1.40
2022-09-16T22:35:25.911Z,1.47
2022-09-16T22:38:56.921Z,1.95
2022-09-16T22:42:15.043Z,1.60
2022-09-16T22:45:31.926Z,1.63
2022-09-16T22:48:48.061Z,1.43
2022-09-16T22:52:25.978Z,1.63
2022-09-16T22:55:29.971Z,1.33
2022-09-16T22:58:58.998Z,1.35
2022-09-16T23:02:06.170Z,1.60
2022-09-16T23:05:27.012Z,1.83
2022-09-16T23:08:47.051Z,1.50
2022-09-16T23:12:03.096Z,1.90
2022-09-16T23:15:07.143Z,1.70
2022-09-16T23:18:38.217Z,1.60
2022-09-16T23:21:54.086Z,1.70
2022-09-16T23:25:29.159Z,1.70
2022-09-16T23:28:45.244Z,1.40
2022-09-16T23:32:04.365Z,1.57
2022-09-16T23:35:11.182Z,2.10
2022-09-16T23:38:30.190Z,1.90
2022-09-16T23:41:50.292Z,1.10
2022-09-16T23:45:09.219Z,2.00
2022-09-16T23:48:13.153Z,1.73
2022-09-16T23:51:29.196Z,1.50
2022-09-16T23:54:45.243Z,1.77
2022-09-16T23:58:15.209Z,1.53
